createdAt,value
2022-11-22T00:00:46.173Z,70.89
2022-11-22T00:03:18.582Z,71.03
2022-11-22T00:05:46.487Z,71.11
2022-11-22T00:08:14.258Z,71.16
2022-11-22T00:10:41.789Z,70.98
2022-11-22T00:13:09.638Z,71.14
2022-11-22T00:15:37.129Z,70.88
2022-11-22T00:18:04.638Z,70.99
2022-11-22T00:20:32.197Z,71.02
2022-11-22T00:22:59.784Z,71.04
2022-11-22T00:25:27.656Z,71.09
2022-11-22T00:27:55.431Z,71.17
2022-11-22T00:30:22.911Z,71.08
2022-11-22T00:32:50.432Z,71.24
2022-11-22T00:35:17.921Z,71.10
2022-11-22T00:37:45.425Z,71.31
2022-11-22T00:40:12.941Z,71.14
2022-11-22T00:42:40.403Z,71.22
2022-11-22T00:45:08.474Z,71.12
2022-11-22T00:47:35.978Z,71.03
2022-11-22T00:50:05.099Z,71.08
2022-11-22T00:52:32.865Z,71.13
2022-11-22T00:55:00.366Z,71.25
2022-11-22T00:57:28.019Z,71.35
2022-11-22T00:59:55.485Z,71.28
2022-11-22T01:02:22.942Z,71.26
2022-11-22T01:04:50.757Z,71.36
2022-11-22T01:07:18.689Z,71.27
2022-11-22T01:09:46.232Z,71.20
2022-11-22T01:12:13.695Z,71.28
2022-11-22T01:14:41.233Z,71.25
2022-11-22T01:17:08.681Z,71.33
2022-11-22T01:19:36.167Z,71.18
2022-11-22T01:22:03.654Z,71.16
2022-11-22T01:24:31.093Z,71.17
2022-11-22T01:26:58.548Z,71.27
2022-11-22T01:29:26.124Z,71.34
2022-11-22T01:31:53.650Z,71.63
2022-11-22T01:34:21.156Z,71.59
2022-11-22T01:36:48.591Z,71.45
2022-11-22T01:39:16.218Z,71.53
2022-11-22T01:41:43.734Z,71.61
2022-11-22T01:44:29.198Z,71.47
2022-11-22T01:47:06.069Z,71.66
2022-11-22T01:49:42.824Z,71.51
2022-11-22T01:52:17.749Z,71.57
2022-11-22T01:54:50.851Z,71.63
2022-11-22T01:57:24.058Z,71.78
2022-11-22T02:00:08.792Z,71.86
2022-11-22T02:02:37.257Z,71.79
2022-11-22T02:05:15.063Z,71.76
2022-11-22T02:08:05.885Z,71.63
2022-11-22T02:10:37.420Z,71.65
2022-11-22T02:13:06.721Z,71.56
2022-11-22T02:15:36.214Z,71.64
2022-11-22T02:18:03.746Z,71.75
2022-11-22T02:20:31.845Z,71.72
2022-11-22T02:23:15.301Z,71.89
2022-11-22T02:25:49.809Z,71.83
2022-11-22T02:28:17.335Z,71.78
2022-11-22T02:30:44.896Z,71.80
2022-11-22T02:33:12.406Z,71.68
2022-11-22T02:35:41.708Z,71.76
2022-11-22T02:38:35.595Z,71.89
2022-11-22T02:41:08.888Z,71.74
2022-11-22T02:43:40.031Z,71.73
2022-11-22T02:46:10.637Z,71.94
2022-11-22T02:48:45.050Z,71.99
2022-11-22T02:51:16.923Z,71.93
2022-11-22T02:53:45.378Z,71.93
2022-11-22T02:56:13.505Z,71.93
2022-11-22T02:58:41.019Z,72.01
2022-11-22T03:01:08.551Z,71.94
2022-11-22T03:03:36.214Z,71.82
2022-11-22T03:06:03.847Z,71.98
2022-11-22T03:08:31.344Z,71.93
2022-11-22T03:10:59.232Z,71.97
2022-11-22T03:13:27.325Z,71.88
2022-11-22T03:15:54.836Z,72.03
2022-11-22T03:18:22.371Z,72.08
2022-11-22T03:20:49.876Z,71.94
2022-11-22T03:23:17.434Z,72.00
2022-11-22T03:25:44.919Z,71.90
2022-11-22T03:28:12.469Z,71.98
2022-11-22T03:30:41.653Z,71.87
2022-11-22T03:33:09.664Z,71.83
2022-11-22T03:35:37.544Z,71.86
2022-11-22T03:38:06.961Z,71.83
2022-11-22T03:40:34.564Z,72.06
2022-11-22T03:43:03.007Z,71.90
2022-11-22T03:45:30.578Z,72.19
2022-11-22T03:47:58.153Z,72.00
2022-11-22T03:50:25.784Z,72.02
2022-11-22T03:52:53.356Z,72.08
2022-11-22T03:55:20.828Z,72.00
2022-11-22T03:57:48.325Z,71.87
2022-11-22T04:00:16.025Z,72.01
2022-11-22T04:02:43.602Z,71.98
2022-11-22T04:05:11.179Z,72.09
2022-11-22T04:07:38.816Z,71.90
2022-11-22T04:10:07.066Z,71.90
2022-11-22T04:12:34.670Z,71.97
2022-11-22T04:15:08.124Z,72.12
2022-11-22T04:17:40.937Z,72.06
2022-11-22T04:20:26.483Z,71.75
2022-11-22T04:23:08.011Z,71.76
2022-11-22T04:25:38.164Z,71.91
2022-11-22T04:28:07.606Z,71.91
2022-11-22T04:30:51.744Z,72.03
2022-11-22T04:33:19.813Z,71.97
2022-11-22T04:35:47.958Z,72.08
2022-11-22T04:38:16.879Z,72.03
2022-11-22T04:40:45.618Z,71.96
2022-11-22T04:43:43.345Z,72.06
2022-11-22T04:46:11.863Z,71.86
2022-11-22T04:48:40.165Z,72.00
2022-11-22T04:51:27.198Z,71.96
2022-11-22T04:53:54.703Z,71.99
2022-11-22T04:56:22.167Z,72.07
2022-11-22T04:58:51.292Z,72.07
2022-11-22T05:01:18.856Z,72.08
2022-11-22T05:03:46.481Z,71.89
2022-11-22T05:06:14.598Z,71.78
2022-11-22T05:08:42.081Z,72.16
2022-11-22T05:11:09.939Z,72.20
2022-11-22T05:13:40.178Z,72.40
2022-11-22T05:16:10.623Z,72.28
2022-11-22T05:18:38.688Z,72.31
2022-11-22T05:21:07.676Z,72.32
2022-11-22T05:23:51.655Z,72.25
2022-11-22T05:26:20.451Z,72.19
2022-11-22T05:28:47.993Z,72.12
2022-11-22T05:31:18.394Z,72.02
2022-11-22T05:33:46.399Z,72.09
2022-11-22T05:36:13.998Z,72.23
2022-11-22T05:38:41.828Z,72.37
2022-11-22T05:41:12.358Z,72.26
2022-11-22T05:43:40.267Z,72.12
2022-11-22T05:46:14.585Z,72.11
2022-11-22T05:48:44.873Z,72.12
2022-11-22T05:51:15.288Z,72.02
2022-11-22T05:53:44.134Z,72.03
2022-11-22T05:56:14.365Z,72.11
2022-11-22T05:58:42.316Z,72.21
2022-11-22T06:01:15.432Z,72.21
2022-11-22T06:03:43.696Z,72.29
2022-11-22T06:06:12.053Z,72.40
2022-11-22T06:08:43.230Z,72.37
2022-11-22T06:11:27.471Z,72.34
2022-11-22T06:14:00.811Z,72.37
2022-11-22T06:16:29.070Z,72.40
2022-11-22T06:18:56.867Z,72.47
2022-11-22T06:21:26.339Z,72.66
2022-11-22T06:23:55.080Z,72.47
2022-11-22T06:26:24.099Z,72.52
2022-11-22T06:28:52.507Z,72.40
2022-11-22T06:31:23.029Z,72.48
2022-11-22T06:33:51.096Z,72.43
2022-11-22T06:36:21.458Z,72.38
2022-11-22T06:38:49.011Z,72.56
2022-11-22T06:41:22.024Z,72.62
2022-11-22T06:43:51.307Z,72.57
2022-11-22T06:46:20.542Z,72.42
2022-11-22T06:48:48.953Z,72.37
2022-11-22T06:51:19.989Z,72.56
2022-11-22T06:53:51.138Z,72.57
2022-11-22T06:56:21.610Z,72.46
2022-11-22T06:58:51.280Z,72.39
2022-11-22T07:01:24.762Z,72.31
2022-11-22T07:03:58.164Z,72.39
2022-11-22T07:06:28.604Z,72.46
2022-11-22T07:08:57.173Z,72.47
2022-11-22T07:11:27.979Z,72.55
2022-11-22T07:14:00.376Z,72.65
2022-11-22T07:16:33.043Z,72.49
2022-11-22T07:19:01.832Z,72.46
2022-11-22T07:21:29.321Z,72.29
2022-11-22T07:23:56.965Z,72.42
2022-11-22T07:26:26.209Z,72.37
2022-11-22T07:28:53.845Z,72.32
2022-11-22T07:31:21.349Z,72.36
2022-11-22T07:33:49.633Z,72.33
2022-11-22T07:36:22.121Z,72.47
2022-11-22T07:38:51.435Z,72.41
2022-11-22T07:41:19.821Z,72.43
2022-11-22T07:43:47.613Z,72.39
2022-11-22T07:46:18.315Z,72.44
2022-11-22T07:48:47.933Z,72.31
2022-11-22T07:51:16.378Z,72.49
2022-11-22T07:53:44.383Z,72.46
2022-11-22T07:56:12.061Z,72.30
2022-11-22T07:58:39.886Z,72.30
2022-11-22T08:01:13.523Z,72.19
2022-11-22T08:03:45.410Z,72.32
2022-11-22T08:06:13.565Z,72.24
2022-11-22T08:08:41.580Z,72.28
2022-11-22T08:11:10.183Z,72.27
2022-11-22T08:13:37.893Z,72.24
2022-11-22T08:16:11.458Z,72.39
2022-11-22T08:18:42.167Z,72.27
2022-11-22T08:21:12.727Z,72.30
2022-11-22T08:23:41.594Z,72.36
2022-11-22T08:26:12.867Z,72.54
2022-11-22T08:28:41.831Z,72.51
2022-11-22T08:31:19.652Z,72.36
2022-11-22T08:33:48.240Z,72.24
2022-11-22T08:36:15.776Z,72.30
2022-11-22T08:38:43.395Z,72.43
2022-11-22T08:41:10.988Z,72.26
2022-11-22T08:43:38.451Z,72.35
2022-11-22T08:46:06.419Z,72.31
2022-11-22T08:48:36.837Z,72.12
2022-11-22T08:51:10.290Z,71.94
2022-11-22T08:53:41.460Z,71.72
2022-11-22T08:56:12.820Z,71.84
2022-11-22T08:58:40.763Z,71.86
2022-11-22T09:01:10.718Z,71.75
2022-11-22T09:03:38.406Z,71.65
2022-11-22T09:09:15.141Z,72.03
2022-11-22T09:11:44.117Z,72.24
2022-11-22T09:14:11.649Z,72.20
2022-11-22T09:16:39.150Z,72.34
2022-11-22T09:19:06.604Z,72.12
2022-11-22T09:21:34.253Z,72.06
2022-11-22T09:24:02.013Z,72.03
2022-11-22T09:26:29.828Z,72.05
2022-11-22T09:28:57.467Z,71.87
2022-11-22T09:31:25.296Z,71.90
2022-11-22T09:33:52.770Z,71.81
2022-11-22T09:36:23.152Z,72.07
2022-11-22T09:38:51.703Z,71.80
2022-11-22T09:41:33.363Z,71.85
2022-11-22T09:44:13.476Z,71.87
2022-11-22T09:46:53.787Z,71.97
2022-11-22T09:49:43.475Z,71.97
2022-11-22T09:52:34.897Z,71.84
2022-11-22T09:55:12.079Z,71.85
2022-11-22T09:57:47.161Z,71.69
2022-11-22T10:00:27.258Z,71.77
2022-11-22T10:03:04.756Z,71.25
2022-11-22T10:05:41.338Z,71.34
2022-11-22T10:08:33.683Z,71.50
2022-11-22T10:11:06.489Z,71.35
2022-11-22T10:13:53.636Z,71.59
2022-11-22T10:16:30.973Z,71.65
2022-11-22T10:19:11.536Z,71.70
2022-11-22T10:21:39.059Z,71.72
2022-11-22T10:24:06.846Z,71.53
2022-11-22T10:26:35.592Z,71.53
2022-11-22T10:29:35.087Z,71.52
2022-11-22T10:32:18.771Z,71.63
2022-11-22T10:34:55.890Z,71.63
2022-11-22T10:37:23.349Z,71.51
2022-11-22T10:40:10.932Z,71.82
2022-11-22T10:42:53.580Z,71.88
2022-11-22T10:45:30.739Z,71.65
2022-11-22T10:48:15.594Z,71.43
2022-11-22T10:50:56.765Z,71.68
2022-11-22T10:53:47.495Z,71.57
2022-11-22T10:56:50.055Z,71.72
2022-11-22T10:59:28.690Z,71.51
2022-11-22T11:02:10.558Z,71.48
2022-11-22T11:04:42.203Z,71.48
2022-11-22T11:07:19.319Z,71.44
2022-11-22T11:10:26.378Z,71.40
2022-11-22T11:13:02.765Z,71.15
2022-11-22T11:15:44.822Z,71.13
2022-11-22T11:18:19.432Z,71.17
2022-11-22T11:20:47.921Z,71.22
2022-11-22T11:23:16.272Z,71.25
2022-11-22T11:25:46.387Z,71.14
2022-11-22T11:28:23.879Z,71.27
2022-11-22T11:31:10.112Z,71.47
2022-11-22T11:33:40.559Z,71.49
2022-11-22T11:36:08.321Z,71.56
2022-11-22T11:38:42.139Z,71.41
2022-11-22T11:41:30.631Z,71.41
2022-11-22T11:44:01.149Z,71.30
2022-11-22T11:46:43.911Z,71.27
2022-11-22T11:49:15.752Z,71.12
2022-11-22T11:51:44.665Z,71.04
2022-11-22T11:54:34.228Z,71.06
2022-11-22T11:57:05.180Z,71.09
2022-11-22T11:59:38.723Z,71.06
2022-11-22T12:02:14.458Z,71.04
2022-11-22T12:04:56.144Z,71.05
2022-11-22T12:07:49.433Z,71.01
2022-11-22T12:10:43.892Z,71.09
2022-11-22T12:14:18.331Z,71.23
2022-11-22T12:16:46.028Z,71.01
2022-11-22T12:19:28.345Z,71.22
2022-11-22T12:22:29.550Z,71.05
2022-11-22T12:25:34.601Z,71.18
2022-11-22T12:28:25.912Z,71.11
2022-11-22T12:31:04.032Z,70.95
2022-11-22T12:33:37.157Z,71.13
2022-11-22T12:36:10.913Z,71.10
2022-11-22T12:38:43.605Z,71.13
2022-11-22T12:41:16.939Z,71.13
2022-11-22T12:43:58.298Z,71.27
2022-11-22T12:46:44.797Z,70.90
2022-11-22T12:49:15.540Z,71.05
2022-11-22T12:51:56.326Z,70.97
2022-11-22T12:54:32.682Z,70.94
2022-11-22T12:57:07.390Z,70.97
2022-11-22T12:59:55.013Z,70.91
2022-11-22T13:02:34.360Z,71.15
2022-11-22T13:05:09.168Z,70.91
2022-11-22T13:07:36.731Z,71.04
2022-11-22T13:10:25.904Z,71.04
2022-11-22T13:12:56.536Z,71.13
2022-11-22T13:15:28.837Z,71.16
2022-11-22T13:17:57.306Z,71.10
2022-11-22T13:20:29.383Z,71.10
2022-11-22T13:23:25.468Z,71.13
2022-11-22T13:26:28.047Z,71.12
2022-11-22T13:28:56.510Z,70.95
2022-11-22T13:31:24.223Z,70.92
2022-11-22T13:33:55.581Z,71.04
2022-11-22T13:36:29.269Z,71.13
2022-11-22T13:39:06.900Z,71.07
2022-11-22T13:41:34.313Z,71.05
2022-11-22T13:44:23.917Z,71.05
2022-11-22T13:47:23.747Z,71.19
2022-11-22T13:49:53.944Z,71.33
2022-11-22T13:52:22.162Z,71.39
2022-11-22T13:54:49.888Z,71.25
2022-11-22T13:57:34.824Z,71.30
2022-11-22T14:00:19.677Z,71.09
2022-11-22T14:03:09.141Z,71.04
2022-11-22T14:05:41.895Z,70.87
2022-11-22T14:08:42.350Z,70.95
2022-11-22T14:11:41.846Z,70.95
2022-11-22T14:14:28.782Z,71.18
2022-11-22T14:17:10.763Z,71.30
2022-11-22T14:19:54.269Z,71.28
2022-11-22T14:22:37.723Z,71.35
2022-11-22T14:25:41.553Z,71.17
2022-11-22T14:28:17.922Z,71.27
2022-11-22T14:30:54.073Z,71.32
2022-11-22T14:33:24.419Z,71.22
2022-11-22T14:36:11.724Z,71.23
2022-11-22T14:38:43.846Z,71.33
2022-11-22T14:41:27.596Z,71.31
2022-11-22T14:44:08.290Z,71.27
2022-11-22T14:46:59.329Z,71.21
2022-11-22T14:49:33.681Z,71.22
2022-11-22T14:52:02.250Z,71.16
2022-11-22T14:54:52.570Z,71.23
2022-11-22T14:57:24.732Z,71.28
2022-11-22T15:00:02.704Z,71.27
2022-11-22T15:03:12.656Z,71.11
2022-11-22T15:09:12.365Z,71.03
2022-11-22T15:09:23.880Z,71.18
2022-11-22T15:12:11.108Z,71.23
2022-11-22T15:14:54.491Z,71.30
2022-11-22T15:57:59.309Z,71.41
2022-11-22T16:00:28.670Z,71.46
2022-11-22T16:03:01.495Z,71.53
2022-11-22T16:06:05.486Z,71.36
2022-11-22T16:08:24.349Z,71.42
2022-11-22T16:10:54.338Z,71.41
2022-11-22T16:13:21.813Z,71.51
2022-11-22T16:16:11.388Z,71.51
2022-11-22T16:18:40.528Z,71.45
2022-11-22T16:21:11.266Z,71.60
2022-11-22T16:23:40.346Z,71.51
2022-11-22T16:26:31.267Z,71.59
2022-11-22T16:29:19.482Z,71.38
2022-11-22T16:31:47.058Z,71.35
2022-11-22T16:34:15.262Z,71.36
2022-11-22T16:36:42.792Z,71.36
2022-11-22T16:39:10.269Z,71.33
2022-11-22T16:41:37.913Z,71.24
2022-11-22T16:44:14.325Z,71.32
2022-11-22T16:46:42.480Z,71.45
2022-11-22T16:49:26.067Z,71.38
2022-11-22T16:51:53.600Z,71.37
2022-11-22T16:54:23.710Z,71.37
2022-11-22T16:56:51.218Z,71.19
2022-11-22T16:59:18.808Z,71.14
2022-11-22T17:01:46.307Z,71.33
2022-11-22T17:04:26.226Z,71.32
2022-11-22T17:06:54.068Z,71.28
2022-11-22T17:09:21.786Z,71.39
2022-11-22T17:11:49.830Z,71.27
2022-11-22T17:14:18.857Z,71.49
2022-11-22T17:16:46.616Z,71.47
2022-11-22T17:19:37.600Z,71.34
2022-11-22T17:22:01.802Z,71.36
2022-11-22T17:24:29.890Z,71.23
2022-11-22T17:26:57.766Z,71.34
2022-11-22T17:32:13.810Z,71.41
2022-11-22T17:34:41.338Z,71.28
2022-11-22T17:37:12.248Z,71.26
2022-11-22T17:39:40.797Z,71.29
2022-11-22T17:42:08.905Z,71.49
2022-11-22T17:44:36.499Z,71.43
2022-11-22T17:47:04.656Z,71.32
2022-11-22T17:49:32.578Z,71.33
2022-11-22T17:52:00.327Z,71.20
2022-11-22T17:54:27.838Z,71.07
2022-11-22T17:56:55.335Z,71.30
2022-11-22T17:59:22.905Z,71.46
2022-11-22T18:01:50.405Z,71.53
2022-11-22T18:04:17.975Z,71.55
2022-11-22T18:06:46.745Z,71.44
2022-11-22T18:09:14.618Z,71.21
2022-11-22T18:11:42.794Z,71.14
2022-11-22T18:14:11.030Z,71.06
2022-11-22T18:16:38.712Z,71.18
2022-11-22T18:19:10.334Z,71.23
2022-11-22T18:21:39.029Z,71.32
2022-11-22T18:24:08.766Z,71.43
2022-11-22T18:26:40.649Z,71.61
2022-11-22T18:32:00.648Z,71.36
2022-11-22T18:34:29.327Z,71.34
2022-11-22T18:37:02.019Z,71.32
2022-11-22T18:39:35.276Z,71.44
2022-11-22T18:42:10.358Z,71.24
2022-11-22T18:44:37.952Z,71.35
2022-11-22T18:47:05.784Z,71.38
2022-11-22T18:49:34.200Z,71.24
2022-11-22T18:52:02.261Z,71.36
2022-11-22T18:54:30.201Z,71.26
2022-11-22T18:56:58.499Z,71.32
2022-11-22T18:59:26.332Z,71.31
2022-11-22T19:01:54.445Z,71.43
2022-11-22T19:04:22.113Z,71.31
2022-11-22T19:06:49.776Z,71.31
2022-11-22T19:09:17.649Z,71.43
2022-11-22T19:11:45.508Z,71.46
2022-11-22T19:14:13.182Z,71.60
2022-11-22T19:16:40.958Z,71.51
2022-11-22T19:19:10.774Z,71.44
2022-11-22T19:21:38.447Z,71.49
2022-11-22T19:24:06.202Z,71.63
2022-11-22T19:26:33.845Z,71.60
2022-11-22T19:29:02.801Z,71.41
2022-11-22T19:31:31.637Z,71.52
2022-11-22T19:33:59.934Z,71.63
2022-11-22T19:36:36.379Z,71.39
2022-11-22T19:39:05.593Z,71.58
2022-11-22T19:41:33.431Z,71.54
2022-11-22T19:44:00.977Z,71.41
2022-11-22T19:46:29.583Z,71.36
2022-11-22T19:48:58.796Z,71.40
2022-11-22T19:51:28.446Z,71.45
2022-11-22T19:53:59.596Z,71.38
2022-11-22T19:56:31.778Z,71.35
2022-11-22T19:59:01.277Z,71.43
2022-11-22T20:01:31.427Z,71.50
2022-11-22T20:04:01.886Z,71.62
2022-11-22T20:06:30.425Z,71.61
2022-11-22T20:09:05.966Z,71.55
2022-11-22T20:11:33.519Z,71.47
2022-11-22T20:14:01.524Z,71.44
2022-11-22T20:16:30.184Z,71.42
2022-11-22T20:19:04.432Z,71.52
2022-11-22T20:21:33.202Z,71.41
2022-11-22T20:24:01.121Z,71.31
2022-11-22T20:26:30.166Z,71.45
2022-11-22T20:28:59.756Z,71.57
2022-11-22T20:31:31.339Z,71.58
2022-11-22T20:34:00.716Z,71.45
2022-11-22T20:36:31.648Z,71.40
2022-11-22T20:39:01.901Z,71.35
2022-11-22T20:41:32.987Z,71.37
2022-11-22T20:44:00.648Z,71.42
2022-11-22T20:46:29.081Z,71.43
2022-11-22T20:48:58.367Z,71.35
2022-11-22T20:51:28.002Z,71.41
2022-11-22T20:53:56.399Z,71.36
2022-11-22T20:56:25.154Z,71.53
2022-11-22T20:58:53.215Z,71.43
2022-11-22T21:01:26.547Z,71.46
2022-11-22T21:03:55.053Z,71.48
2022-11-22T21:06:24.292Z,71.52
2022-11-22T21:08:51.881Z,71.46
2022-11-22T21:11:29.212Z,71.47
2022-11-22T21:13:58.064Z,71.35
2022-11-22T21:16:28.510Z,71.47
2022-11-22T21:19:00.890Z,71.49
2022-11-22T21:21:29.290Z,71.57
2022-11-22T21:24:00.722Z,71.78
2022-11-22T21:26:29.435Z,71.71
2022-11-22T21:28:57.688Z,71.58
2022-11-22T21:31:27.124Z,71.61
2022-11-22T21:33:54.640Z,71.49
2022-11-22T21:36:22.285Z,71.29
2022-11-22T21:38:49.863Z,71.18
2022-11-22T21:44:10.915Z,71.34
2022-11-22T21:46:39.479Z,71.37
2022-11-22T21:49:07.136Z,71.50
2022-11-22T21:51:34.724Z,71.54
2022-11-22T21:54:03.233Z,71.50
2022-11-22T21:56:31.651Z,71.56
2022-11-22T21:58:59.806Z,71.62
2022-11-22T22:01:27.860Z,71.41
2022-11-22T22:03:55.640Z,71.58
2022-11-22T22:06:23.428Z,71.34
2022-11-22T22:08:50.966Z,71.57
2022-11-22T22:11:18.475Z,71.39
2022-11-22T22:13:46.047Z,71.49
2022-11-22T22:16:18.496Z,71.28
2022-11-22T22:18:47.052Z,71.54
2022-11-22T22:21:16.027Z,71.73
2022-11-22T22:23:44.503Z,71.56
2022-11-22T22:26:15.545Z,71.56
2022-11-22T22:28:45.106Z,71.56
2022-11-22T22:31:17.325Z,71.54
2022-11-22T22:33:45.660Z,71.49
2022-11-22T22:36:13.909Z,71.48
2022-11-22T22:38:41.726Z,71.63
2022-11-22T22:41:12.062Z,71.53
2022-11-22T22:43:45.176Z,71.67
2022-11-22T22:46:18.771Z,71.66
2022-11-22T22:48:47.367Z,71.49
2022-11-22T22:51:18.750Z,71.58
2022-11-22T22:53:46.671Z,71.67
2022-11-22T22:56:16.207Z,71.69
2022-11-22T22:58:43.959Z,72.01
2022-11-22T23:01:17.785Z,72.02
2022-11-22T23:03:57.598Z,71.82
2022-11-22T23:06:28.557Z,71.85
2022-11-22T23:08:56.369Z,71.90
2022-11-22T23:11:42.867Z,71.92
2022-11-22T23:14:12.001Z,71.91
2022-11-22T23:16:40.297Z,71.75
2022-11-22T23:19:08.471Z,71.81
2022-11-22T23:21:37.983Z,71.92
2022-11-22T23:24:06.355Z,72.09
2022-11-22T23:26:34.853Z,72.20
2022-11-22T23:29:02.414Z,72.04
2022-11-22T23:31:30.041Z,71.94
2022-11-22T23:34:01.026Z,72.09
2022-11-22T23:36:29.059Z,71.79
2022-11-22T23:38:56.733Z,71.78
2022-11-22T23:41:25.076Z,71.79
2022-11-22T23:43:54.849Z,71.74
2022-11-22T23:46:24.958Z,71.86
2022-11-22T23:48:54.792Z,71.95
2022-11-22T23:51:24.225Z,71.87
2022-11-22T23:53:56.467Z,72.01
2022-11-22T23:56:25.020Z,71.84
2022-11-22T23:58:53.271Z,72.03
